sensor_id;sensor_type;location;lat;lon;timestamp;P1;durP1;ratioP1;P2;durP2;ratioP2
7450;SDS011;3767;42.688;23.360;2022-09-21T00:00:22;4.33;;;4.00;;
7450;SDS011;3767;42.688;23.360;2022-09-21T00:02:48;4.00;;;3.57;;
7450;SDS011;3767;42.688;23.360;2022-09-21T00:05:15;4.63;;;4.27;;
7450;SDS011;3767;42.688;23.360;2022-09-21T00:07:41;4.10;;;3.70;;
7450;SDS011;3767;42.688;23.360;2022-09-21T00:10:09;4.10;;;3.70;;
7450;SDS011;3767;42.688;23.360;2022-09-21T00:12:36;3.70;;;3.40;;
7450;SDS011;3767;42.688;23.360;2022-09-21T00:15:04;3.57;;;3.37;;
7450;SDS011;3767;42.688;23.360;2022-09-21T00:17:30;3.50;;;3.30;;
7450;SDS011;3767;42.688;23.360;2022-09-21T00:19:57;4.07;;;3.80;;
7450;SDS011;3767;42.688;23.360;2022-09-21T00:22:25;3.83;;;3.20;;
7450;SDS011;3767;42.688;23.360;2022-09-21T00:24:51;3.70;;;3.40;;
7450;SDS011;3767;42.688;23.360;2022-09-21T00:27:19;3.20;;;3.00;;
7450;SDS011;3767;42.688;23.360;2022-09-21T00:29:46;3.97;;;3.40;;
7450;SDS011;3767;42.688;23.360;2022-09-21T00:32:12;3.83;;;3.53;;
7450;SDS011;3767;42.688;23.360;2022-09-21T00:34:39;3.40;;;3.20;;
7450;SDS011;3767;42.688;23.360;2022-09-21T00:37:06;3.60;;;3.30;;
7450;SDS011;3767;42.688;23.360;2022-09-21T00:39:33;4.47;;;3.43;;
7450;SDS011;3767;42.688;23.360;2022-09-21T00:41:59;5.40;;;3.30;;
7450;SDS011;3767;42.688;23.360;2022-09-21T00:44:31;3.70;;;3.40;;
7450;SDS011;3767;42.688;23.360;2022-09-21T00:47:00;3.43;;;3.13;;
7450;SDS011;3767;42.688;23.360;2022-09-21T00:49:27;3.60;;;3.20;;
7450;SDS011;3767;42.688;23.360;2022-09-21T00:51:54;3.80;;;3.50;;
7450;SDS011;3767;42.688;23.360;2022-09-21T00:54:22;3.93;;;3.63;;
7450;SDS011;3767;42.688;23.360;2022-09-21T00:56:50;6.00;;;3.70;;
7450;SDS011;3767;42.688;23.360;2022-09-21T00:59:17;3.67;;;3.37;;
7450;SDS011;3767;42.688;23.360;2022-09-21T01:01:45;3.50;;;3.20;;
7450;SDS011;3767;42.688;23.360;2022-09-21T01:04:12;3.90;;;3.60;;
7450;SDS011;3767;42.688;23.360;2022-09-21T01:06:40;5.00;;;3.80;;
7450;SDS011;3767;42.688;23.360;2022-09-21T01:09:07;5.20;;;4.00;;
7450;SDS011;3767;42.688;23.360;2022-09-21T01:11:36;3.70;;;3.40;;
7450;SDS011;3767;42.688;23.360;2022-09-21T01:14:10;3.60;;;3.40;;
7450;SDS011;3767;42.688;23.360;2022-09-21T01:16:41;3.90;;;3.50;;
7450;SDS011;3767;42.688;23.360;2022-09-21T01:19:15;3.43;;;3.17;;
7450;SDS011;3767;42.688;23.360;2022-09-21T01:21:48;3.63;;;3.30;;
7450;SDS011;3767;42.688;23.360;2022-09-21T01:24:19;3.43;;;3.23;;
7450;SDS011;3767;42.688;23.360;2022-09-21T01:29:31;3.20;;;3.00;;
7450;SDS011;3767;42.688;23.360;2022-09-21T01:31:59;4.30;;;2.80;;
7450;SDS011;3767;42.688;23.360;2022-09-21T01:34:28;2.80;;;2.70;;
7450;SDS011;3767;42.688;23.360;2022-09-21T01:36:57;2.90;;;2.70;;
7450;SDS011;3767;42.688;23.360;2022-09-21T01:39:24;3.27;;;2.97;;
7450;SDS011;3767;42.688;23.360;2022-09-21T01:41:51;2.70;;;2.60;;
7450;SDS011;3767;42.688;23.360;2022-09-21T01:44:19;5.03;;;2.90;;
7450;SDS011;3767;42.688;23.360;2022-09-21T01:46:48;2.87;;;2.67;;
7450;SDS011;3767;42.688;23.360;2022-09-21T01:49:15;3.30;;;3.10;;
7450;SDS011;3767;42.688;23.360;2022-09-21T01:51:43;2.90;;;2.70;;
7450;SDS011;3767;42.688;23.360;2022-09-21T01:54:11;3.40;;;3.20;;
7450;SDS011;3767;42.688;23.360;2022-09-21T01:56:40;3.43;;;3.23;;
7450;SDS011;3767;42.688;23.360;2022-09-21T01:59:09;3.27;;;3.07;;
7450;SDS011;3767;42.688;23.360;2022-09-21T02:01:40;3.83;;;3.53;;
7450;SDS011;3767;42.688;23.360;2022-09-21T02:04:10;3.53;;;3.33;;
7450;SDS011;3767;42.688;23.360;2022-09-21T02:06:37;3.47;;;3.23;;
7450;SDS011;3767;42.688;23.360;2022-09-21T02:09:05;3.30;;;3.10;;
7450;SDS011;3767;42.688;23.360;2022-09-21T02:11:32;3.60;;;3.30;;
7450;SDS011;3767;42.688;23.360;2022-09-21T02:13:58;5.93;;;3.73;;
7450;SDS011;3767;42.688;23.360;2022-09-21T02:16:29;4.43;;;3.80;;
7450;SDS011;3767;42.688;23.360;2022-09-21T02:19:02;3.60;;;3.30;;
7450;SDS011;3767;42.688;23.360;2022-09-21T02:21:37;3.83;;;3.43;;
7450;SDS011;3767;42.688;23.360;2022-09-21T02:24:07;3.10;;;2.90;;
7450;SDS011;3767;42.688;23.360;2022-09-21T02:26:39;3.70;;;3.40;;
7450;SDS011;3767;42.688;23.360;2022-09-21T02:29:09;3.23;;;3.03;;
7450;SDS011;3767;42.688;23.360;2022-09-21T02:31:43;3.57;;;3.27;;
7450;SDS011;3767;42.688;23.360;2022-09-21T02:34:15;3.57;;;3.23;;
7450;SDS011;3767;42.688;23.360;2022-09-21T02:36:44;3.40;;;3.10;;
7450;SDS011;3767;42.688;23.360;2022-09-21T02:39:14;4.47;;;2.67;;
7450;SDS011;3767;42.688;23.360;2022-09-21T02:41:42;2.60;;;2.50;;
7450;SDS011;3767;42.688;23.360;2022-09-21T02:44:12;2.30;;;2.20;;
7450;SDS011;3767;42.688;23.360;2022-09-21T02:46:41;2.63;;;2.47;;
7450;SDS011;3767;42.688;23.360;2022-09-21T02:49:09;2.30;;;2.20;;
7450;SDS011;3767;42.688;23.360;2022-09-21T02:51:39;2.30;;;2.20;;
7450;SDS011;3767;42.688;23.360;2022-09-21T02:54:09;2.30;;;2.10;;
7450;SDS011;3767;42.688;23.360;2022-09-21T02:56:37;2.20;;;1.97;;
7450;SDS011;3767;42.688;23.360;2022-09-21T02:59:04;2.50;;;2.00;;
7450;SDS011;3767;42.688;23.360;2022-09-21T03:01:31;2.33;;;2.23;;
7450;SDS011;3767;42.688;23.360;2022-09-21T03:03:58;2.10;;;2.00;;
7450;SDS011;3767;42.688;23.360;2022-09-21T03:06:24;3.97;;;2.30;;
7450;SDS011;3767;42.688;23.360;2022-09-21T03:08:51;2.17;;;2.07;;
7450;SDS011;3767;42.688;23.360;2022-09-21T03:11:19;2.37;;;2.10;;
7450;SDS011;3767;42.688;23.360;2022-09-21T03:13:45;2.30;;;2.20;;
7450;SDS011;3767;42.688;23.360;2022-09-21T03:16:12;2.27;;;2.17;;
7450;SDS011;3767;42.688;23.360;2022-09-21T03:18:38;2.43;;;2.20;;
7450;SDS011;3767;42.688;23.360;2022-09-21T03:21:08;4.83;;;2.40;;
7450;SDS011;3767;42.688;23.360;2022-09-21T03:23:34;2.33;;;2.23;;
7450;SDS011;3767;42.688;23.360;2022-09-21T03:26:01;2.63;;;2.43;;
7450;SDS011;3767;42.688;23.360;2022-09-21T03:28:29;4.50;;;2.30;;
7450;SDS011;3767;42.688;23.360;2022-09-21T03:30:56;2.27;;;2.17;;
7450;SDS011;3767;42.688;23.360;2022-09-21T03:33:22;2.60;;;2.40;;
7450;SDS011;3767;42.688;23.360;2022-09-21T03:35:49;2.33;;;2.10;;
7450;SDS011;3767;42.688;23.360;2022-09-21T03:38:16;2.47;;;2.37;;
7450;SDS011;3767;42.688;23.360;2022-09-21T03:40:43;2.50;;;2.40;;
7450;SDS011;3767;42.688;23.360;2022-09-21T03:43:10;2.33;;;2.23;;
7450;SDS011;3767;42.688;23.360;2022-09-21T03:45:38;2.20;;;2.10;;
7450;SDS011;3767;42.688;23.360;2022-09-21T03:48:05;2.70;;;2.57;;
7450;SDS011;3767;42.688;23.360;2022-09-21T03:50:31;5.13;;;2.33;;
7450;SDS011;3767;42.688;23.360;2022-09-21T03:52:58;3.00;;;2.07;;
7450;SDS011;3767;42.688;23.360;2022-09-21T03:55:24;2.47;;;2.37;;
7450;SDS011;3767;42.688;23.360;2022-09-21T03:57:51;2.40;;;2.30;;
7450;SDS011;3767;42.688;23.360;2022-09-21T04:00:18;3.63;;;3.00;;
7450;SDS011;3767;42.688;23.360;2022-09-21T04:02:46;2.60;;;2.50;;
7450;SDS011;3767;42.688;23.360;2022-09-21T04:05:13;2.97;;;2.77;;
7450;SDS011;3767;42.688;23.360;2022-09-21T04:07:40;6.17;;;2.80;;
7450;SDS011;3767;42.688;23.360;2022-09-21T04:10:10;5.60;;;3.10;;
7450;SDS011;3767;42.688;23.360;2022-09-21T04:12:37;4.30;;;3.90;;
7450;SDS011;3767;42.688;23.360;2022-09-21T04:15:06;6.00;;;4.23;;
7450;SDS011;3767;42.688;23.360;2022-09-21T04:17:33;5.93;;;4.20;;
7450;SDS011;3767;42.688;23.360;2022-09-21T04:20:01;13.23;;;7.07;;
7450;SDS011;3767;42.688;23.360;2022-09-21T04:22:27;12.07;;;6.00;;
7450;SDS011;3767;42.688;23.360;2022-09-21T04:24:55;8.47;;;6.40;;
7450;SDS011;3767;42.688;23.360;2022-09-21T04:27:22;8.60;;;6.40;;
7450;SDS011;3767;42.688;23.360;2022-09-21T04:29:48;11.50;;;6.90;;
7450;SDS011;3767;42.688;23.360;2022-09-21T04:32:15;10.23;;;7.03;;
7450;SDS011;3767;42.688;23.360;2022-09-21T04:34:41;9.50;;;5.93;;
7450;SDS011;3767;42.688;23.360;2022-09-21T04:37:09;11.53;;;6.17;;
7450;SDS011;3767;42.688;23.360;2022-09-21T04:39:36;9.03;;;5.47;;
7450;SDS011;3767;42.688;23.360;2022-09-21T04:42:02;12.20;;;6.20;;
7450;SDS011;3767;42.688;23.360;2022-09-21T04:44:29;9.13;;;5.73;;
7450;SDS011;3767;42.688;23.360;2022-09-21T04:46:55;12.30;;;5.80;;
7450;SDS011;3767;42.688;23.360;2022-09-21T04:49:22;10.97;;;5.83;;
7450;SDS011;3767;42.688;23.360;2022-09-21T04:51:49;6.63;;;5.50;;
7450;SDS011;3767;42.688;23.360;2022-09-21T04:54:17;10.67;;;5.70;;
7450;SDS011;3767;42.688;23.360;2022-09-21T04:56:43;6.33;;;5.43;;
7450;SDS011;3767;42.688;23.360;2022-09-21T04:59:10;5.63;;;4.90;;
7450;SDS011;3767;42.688;23.360;2022-09-21T05:01:36;4.47;;;4.07;;
7450;SDS011;3767;42.688;23.360;2022-09-21T05:04:03;10.23;;;4.93;;
7450;SDS011;3767;42.688;23.360;2022-09-21T05:06:29;6.77;;;4.67;;
7450;SDS011;3767;42.688;23.360;2022-09-21T05:08:57;7.37;;;5.33;;
7450;SDS011;3767;42.688;23.360;2022-09-21T05:11:42;19.70;;;7.10;;
7450;SDS011;3767;42.688;23.360;2022-09-21T05:14:09;13.00;;;8.40;;
7450;SDS011;3767;42.688;23.360;2022-09-21T05:16:35;11.50;;;7.00;;
7450;SDS011;3767;42.688;23.360;2022-09-21T05:19:02;18.57;;;7.60;;
7450;SDS011;3767;42.688;23.360;2022-09-21T05:21:28;9.77;;;6.10;;
7450;SDS011;3767;42.688;23.360;2022-09-21T05:23:55;11.47;;;5.83;;
7450;SDS011;3767;42.688;23.360;2022-09-21T05:26:22;7.87;;;5.07;;
7450;SDS011;3767;42.688;23.360;2022-09-21T05:28:50;7.47;;;4.63;;
7450;SDS011;3767;42.688;23.360;2022-09-21T05:31:22;4.83;;;4.27;;
7450;SDS011;3767;42.688;23.360;2022-09-21T05:33:53;4.60;;;4.20;;
7450;SDS011;3767;42.688;23.360;2022-09-21T05:36:26;7.43;;;3.83;;
7450;SDS011;3767;42.688;23.360;2022-09-21T05:38:55;3.90;;;3.50;;
7450;SDS011;3767;42.688;23.360;2022-09-21T05:41:22;8.27;;;4.37;;
7450;SDS011;3767;42.688;23.360;2022-09-21T05:43:53;9.67;;;4.37;;
7450;SDS011;3767;42.688;23.360;2022-09-21T05:46:27;6.87;;;4.57;;
7450;SDS011;3767;42.688;23.360;2022-09-21T05:48:58;8.20;;;6.10;;
7450;SDS011;3767;42.688;23.360;2022-09-21T05:51:27;10.90;;;5.50;;
7450;SDS011;3767;42.688;23.360;2022-09-21T05:53:56;6.73;;;5.00;;
7450;SDS011;3767;42.688;23.360;2022-09-21T05:56:29;6.10;;;4.27;;
7450;SDS011;3767;42.688;23.360;2022-09-21T05:59:01;5.37;;;4.00;;
7450;SDS011;3767;42.688;23.360;2022-09-21T06:01:33;7.93;;;4.03;;
7450;SDS011;3767;42.688;23.360;2022-09-21T06:04:01;8.37;;;4.43;;
7450;SDS011;3767;42.688;23.360;2022-09-21T06:06:28;6.20;;;4.53;;
7450;SDS011;3767;42.688;23.360;2022-09-21T06:08:55;10.23;;;4.53;;
7450;SDS011;3767;42.688;23.360;2022-09-21T06:11:21;6.70;;;4.63;;
7450;SDS011;3767;42.688;23.360;2022-09-21T06:13:49;7.20;;;4.50;;
7450;SDS011;3767;42.688;23.360;2022-09-21T06:16:17;9.43;;;4.27;;
7450;SDS011;3767;42.688;23.360;2022-09-21T06:18:43;9.23;;;4.17;;
7450;SDS011;3767;42.688;23.360;2022-09-21T06:21:10;8.23;;;4.27;;
7450;SDS011;3767;42.688;23.360;2022-09-21T06:23:36;5.33;;;3.50;;
7450;SDS011;3767;42.688;23.360;2022-09-21T06:26:03;3.30;;;3.00;;
7450;SDS011;3767;42.688;23.360;2022-09-21T06:28:30;5.67;;;3.30;;
7450;SDS011;3767;42.688;23.360;2022-09-21T06:30:56;4.80;;;3.27;;
7450;SDS011;3767;42.688;23.360;2022-09-21T06:33:24;12.13;;;3.57;;
7450;SDS011;3767;42.688;23.360;2022-09-21T06:35:51;6.63;;;3.40;;
7450;SDS011;3767;42.688;23.360;2022-09-21T06:38:18;5.83;;;4.00;;
7450;SDS011;3767;42.688;23.360;2022-09-21T06:40:45;3.80;;;3.50;;
7450;SDS011;3767;42.688;23.360;2022-09-21T06:43:11;7.07;;;3.37;;
7450;SDS011;3767;42.688;23.360;2022-09-21T06:45:37;11.77;;;3.70;;
7450;SDS011;3767;42.688;23.360;2022-09-21T06:48:04;4.30;;;3.60;;
7450;SDS011;3767;42.688;23.360;2022-09-21T06:50:32;9.43;;;3.90;;
7450;SDS011;3767;42.688;23.360;2022-09-21T06:52:59;3.93;;;3.00;;
7450;SDS011;3767;42.688;23.360;2022-09-21T06:55:26;4.20;;;2.60;;
7450;SDS011;3767;42.688;23.360;2022-09-21T06:57:58;9.23;;;2.87;;
7450;SDS011;3767;42.688;23.360;2022-09-21T07:00:25;3.00;;;2.30;;
7450;SDS011;3767;42.688;23.360;2022-09-21T07:02:51;2.90;;;2.00;;
7450;SDS011;3767;42.688;23.360;2022-09-21T07:05:18;1.97;;;1.87;;
7450;SDS011;3767;42.688;23.360;2022-09-21T07:07:46;2.53;;;2.13;;
7450;SDS011;3767;42.688;23.360;2022-09-21T07:10:12;2.43;;;2.20;;
7450;SDS011;3767;42.688;23.360;2022-09-21T07:12:39;2.50;;;2.30;;
7450;SDS011;3767;42.688;23.360;2022-09-21T07:15:06;2.93;;;2.30;;
7450;SDS011;3767;42.688;23.360;2022-09-21T07:17:33;2.77;;;2.23;;
7450;SDS011;3767;42.688;23.360;2022-09-21T07:20:00;7.73;;;3.67;;
7450;SDS011;3767;42.688;23.360;2022-09-21T07:22:27;5.43;;;3.17;;
7450;SDS011;3767;42.688;23.360;2022-09-21T07:24:55;2.67;;;2.30;;
7450;SDS011;3767;42.688;23.360;2022-09-21T07:27:22;2.43;;;2.23;;
7450;SDS011;3767;42.688;23.360;2022-09-21T07:29:48;4.47;;;2.60;;
7450;SDS011;3767;42.688;23.360;2022-09-21T07:32:15;3.23;;;2.23;;
7450;SDS011;3767;42.688;23.360;2022-09-21T07:34:41;4.57;;;2.57;;
7450;SDS011;3767;42.688;23.360;2022-09-21T07:37:08;2.33;;;2.23;;
7450;SDS011;3767;42.688;23.360;2022-09-21T07:39:34;9.30;;;2.40;;
7450;SDS011;3767;42.688;23.360;2022-09-21T07:42:04;2.33;;;2.17;;
7450;SDS011;3767;42.688;23.360;2022-09-21T07:44:31;8.97;;;2.53;;
7450;SDS011;3767;42.688;23.360;2022-09-21T07:46:58;5.33;;;2.37;;
7450;SDS011;3767;42.688;23.360;2022-09-21T07:49:25;2.30;;;2.10;;
7450;SDS011;3767;42.688;23.360;2022-09-21T07:51:52;2.33;;;2.13;;
7450;SDS011;3767;42.688;23.360;2022-09-21T07:54:18;3.27;;;3.07;;
7450;SDS011;3767;42.688;23.360;2022-09-21T07:56:45;2.23;;;1.70;;
7450;SDS011;3767;42.688;23.360;2022-09-21T07:59:33;2.70;;;2.50;;
7450;SDS011;3767;42.688;23.360;2022-09-21T08:01:58;4.27;;;2.10;;
7450;SDS011;3767;42.688;23.360;2022-09-21T08:04:25;2.00;;;1.90;;
7450;SDS011;3767;42.688;23.360;2022-09-21T08:06:51;1.90;;;1.80;;
7450;SDS011;3767;42.688;23.360;2022-09-21T08:09:18;1.70;;;1.70;;
7450;SDS011;3767;42.688;23.360;2022-09-21T08:11:44;2.60;;;1.60;;
7450;SDS011;3767;42.688;23.360;2022-09-21T08:14:11;4.40;;;2.03;;
7450;SDS011;3767;42.688;23.360;2022-09-21T08:16:45;2.83;;;1.90;;
7450;SDS011;3767;42.688;23.360;2022-09-21T08:19:12;1.97;;;1.83;;
7450;SDS011;3767;42.688;23.360;2022-09-21T08:21:38;2.57;;;1.90;;
7450;SDS011;3767;42.688;23.360;2022-09-21T08:24:05;1.90;;;1.60;;
7450;SDS011;3767;42.688;23.360;2022-09-21T08:26:32;2.43;;;1.60;;
7450;SDS011;3767;42.688;23.360;2022-09-21T08:28:59;2.33;;;1.53;;
7450;SDS011;3767;42.688;23.360;2022-09-21T08:31:25;1.87;;;1.70;;
7450;SDS011;3767;42.688;23.360;2022-09-21T08:33:53;6.93;;;2.23;;
7450;SDS011;3767;42.688;23.360;2022-09-21T08:36:20;2.10;;;1.90;;
7450;SDS011;3767;42.688;23.360;2022-09-21T08:38:46;3.50;;;1.67;;
7450;SDS011;3767;42.688;23.360;2022-09-21T08:41:14;2.03;;;1.87;;
7450;SDS011;3767;42.688;23.360;2022-09-21T08:43:42;1.20;;;1.20;;
7450;SDS011;3767;42.688;23.360;2022-09-21T08:46:09;1.50;;;1.37;;
7450;SDS011;3767;42.688;23.360;2022-09-21T08:48:38;1.97;;;1.17;;
7450;SDS011;3767;42.688;23.360;2022-09-21T08:51:07;1.77;;;1.43;;
7450;SDS011;3767;42.688;23.360;2022-09-21T08:53:37;1.73;;;1.60;;
7450;SDS011;3767;42.688;23.360;2022-09-21T08:56:04;1.23;;;1.20;;
7450;SDS011;3767;42.688;23.360;2022-09-21T08:58:30;1.93;;;1.20;;
7450;SDS011;3767;42.688;23.360;2022-09-21T09:01:03;1.73;;;1.30;;
7450;SDS011;3767;42.688;23.360;2022-09-21T09:03:37;0.90;;;0.90;;
7450;SDS011;3767;42.688;23.360;2022-09-21T09:06:11;1.00;;;1.00;;
7450;SDS011;3767;42.688;23.360;2022-09-21T09:08:45;1.23;;;1.10;;
7450;SDS011;3767;42.688;23.360;2022-09-21T09:11:17;3.60;;;1.10;;
7450;SDS011;3767;42.688;23.360;2022-09-21T09:13:52;2.40;;;1.07;;
7450;SDS011;3767;42.688;23.360;2022-09-21T09:16:23;1.10;;;1.10;;
7450;SDS011;3767;42.688;23.360;2022-09-21T09:18:56;2.27;;;1.10;;
7450;SDS011;3767;42.688;23.360;2022-09-21T09:21:27;1.67;;;0.90;;
7450;SDS011;3767;42.688;23.360;2022-09-21T09:23:56;1.20;;;1.10;;
7450;SDS011;3767;42.688;23.360;2022-09-21T09:26:26;1.80;;;0.87;;
7450;SDS011;3767;42.688;23.360;2022-09-21T09:28:53;1.10;;;1.00;;
7450;SDS011;3767;42.688;23.360;2022-09-21T09:31:21;1.73;;;0.80;;
7450;SDS011;3767;42.688;23.360;2022-09-21T09:33:51;1.60;;;1.10;;
7450;SDS011;3767;42.688;23.360;2022-09-21T09:36:19;2.00;;;0.80;;
7450;SDS011;3767;42.688;23.360;2022-09-21T09:38:48;1.10;;;1.10;;
7450;SDS011;3767;42.688;23.360;2022-09-21T09:41:26;1.30;;;1.20;;
7450;SDS011;3767;42.688;23.360;2022-09-21T09:43:57;1.73;;;0.97;;
7450;SDS011;3767;42.688;23.360;2022-09-21T09:46:27;1.10;;;1.10;;
7450;SDS011;3767;42.688;23.360;2022-09-21T09:51:40;2.55;;;1.05;;
7450;SDS011;3767;42.688;23.360;2022-09-21T09:54:11;0.93;;;0.93;;
7450;SDS011;3767;42.688;23.360;2022-09-21T09:56:38;1.77;;;1.10;;
7450;SDS011;3767;42.688;23.360;2022-09-21T09:59:04;1.00;;;1.00;;
7450;SDS011;3767;42.688;23.360;2022-09-21T10:01:35;0.88;;;0.88;;
7450;SDS011;3767;42.688;23.360;2022-09-21T10:04:06;1.33;;;1.25;;
7450;SDS011;3767;42.688;23.360;2022-09-21T10:06:32;1.20;;;0.98;;
7450;SDS011;3767;42.688;23.360;2022-09-21T10:08:59;3.60;;;1.00;;
7450;SDS011;3767;42.688;23.360;2022-09-21T10:11:34;1.52;;;1.10;;
7450;SDS011;3767;42.688;23.360;2022-09-21T10:14:08;1.17;;;1.17;;
7450;SDS011;3767;42.688;23.360;2022-09-21T10:16:38;1.17;;;1.02;;
7450;SDS011;3767;42.688;23.360;2022-09-21T10:19:10;0.93;;;0.93;;
7450;SDS011;3767;42.688;23.360;2022-09-21T10:21:39;1.88;;;1.00;;
7450;SDS011;3767;42.688;23.360;2022-09-21T10:24:12;3.10;;;1.20;;
7450;SDS011;3767;42.688;23.360;2022-09-21T10:26:43;1.10;;;0.82;;
7450;SDS011;3767;42.688;23.360;2022-09-21T10:29:17;0.98;;;0.90;;
7450;SDS011;3767;42.688;23.360;2022-09-21T10:31:52;2.13;;;0.80;;
7450;SDS011;3767;42.688;23.360;2022-09-21T10:34:19;0.70;;;0.70;;
7450;SDS011;3767;42.688;23.360;2022-09-21T10:36:48;0.77;;;0.70;;
7450;SDS011;3767;42.688;23.360;2022-09-21T10:39:22;0.70;;;0.70;;
7450;SDS011;3767;42.688;23.360;2022-09-21T10:41:51;0.98;;;0.70;;
7450;SDS011;3767;42.688;23.360;2022-09-21T10:44:18;0.70;;;0.70;;
7450;SDS011;3767;42.688;23.360;2022-09-21T10:46:45;1.42;;;0.68;;
7450;SDS011;3767;42.688;23.360;2022-09-21T10:49:14;0.60;;;0.60;;
7450;SDS011;3767;42.688;23.360;2022-09-21T10:54:44;3.60;;;0.90;;
7450;SDS011;3767;42.688;23.360;2022-09-21T10:57:15;0.70;;;0.70;;
7450;SDS011;3767;42.688;23.360;2022-09-21T10:59:42;1.02;;;0.50;;
7450;SDS011;3767;42.688;23.360;2022-09-21T11:02:22;0.50;;;0.50;;
7450;SDS011;3767;42.688;23.360;2022-09-21T11:04:50;0.50;;;0.50;;
7450;SDS011;3767;42.688;23.360;2022-09-21T11:07:19;0.57;;;0.45;;
7450;SDS011;3767;42.688;23.360;2022-09-21T11:09:49;1.98;;;0.52;;
7450;SDS011;3767;42.688;23.360;2022-09-21T11:15:10;1.30;;;0.65;;
7450;SDS011;3767;42.688;23.360;2022-09-21T11:17:40;3.03;;;0.85;;
7450;SDS011;3767;42.688;23.360;2022-09-21T11:20:13;0.60;;;0.60;;
7450;SDS011;3767;42.688;23.360;2022-09-21T11:22:42;0.70;;;0.70;;
7450;SDS011;3767;42.688;23.360;2022-09-21T11:25:17;0.50;;;0.50;;
7450;SDS011;3767;42.688;23.360;2022-09-21T11:27:46;0.52;;;0.52;;
7450;SDS011;3767;42.688;23.360;2022-09-21T11:30:18;1.13;;;0.47;;
7450;SDS011;3767;42.688;23.360;2022-09-21T11:32:49;0.50;;;0.50;;
7450;SDS011;3767;42.688;23.360;2022-09-21T11:35:25;2.00;;;0.80;;
7450;SDS011;3767;42.688;23.360;2022-09-21T11:38:01;0.70;;;0.70;;
7450;SDS011;3767;42.688;23.360;2022-09-21T11:40:49;1.00;;;1.00;;
7450;SDS011;3767;42.688;23.360;2022-09-21T11:43:23;0.98;;;0.98;;
7450;SDS011;3767;42.688;23.360;2022-09-21T11:45:58;1.98;;;0.90;;
7450;SDS011;3767;42.688;23.360;2022-09-21T11:48:35;1.27;;;0.60;;
7450;SDS011;3767;42.688;23.360;2022-09-21T11:51:08;2.40;;;1.00;;
7450;SDS011;3767;42.688;23.360;2022-09-21T11:53:40;1.88;;;0.50;;
7450;SDS011;3767;42.688;23.360;2022-09-21T11:56:20;2.53;;;0.70;;
7450;SDS011;3767;42.688;23.360;2022-09-21T11:58:50;0.55;;;0.55;;
7450;SDS011;3767;42.688;23.360;2022-09-21T12:01:27;4.47;;;1.33;;
7450;SDS011;3767;42.688;23.360;2022-09-21T12:04:00;2.88;;;0.50;;
7450;SDS011;3767;42.688;23.360;2022-09-21T12:06:36;1.65;;;0.60;;
7450;SDS011;3767;42.688;23.360;2022-09-21T12:09:13;2.95;;;0.50;;
7450;SDS011;3767;42.688;23.360;2022-09-21T12:11:45;0.70;;;0.70;;
7450;SDS011;3767;42.688;23.360;2022-09-21T12:14:17;2.47;;;0.50;;
7450;SDS011;3767;42.688;23.360;2022-09-21T12:16:50;0.50;;;0.50;;
7450;SDS011;3767;42.688;23.360;2022-09-21T12:19:21;1.48;;;0.60;;
7450;SDS011;3767;42.688;23.360;2022-09-21T12:21:52;0.80;;;0.80;;
7450;SDS011;3767;42.688;23.360;2022-09-21T12:24:20;0.85;;;0.63;;
7450;SDS011;3767;42.688;23.360;2022-09-21T12:26:48;3.03;;;0.60;;
7450;SDS011;3767;42.688;23.360;2022-09-21T12:29:18;0.52;;;0.52;;
7450;SDS011;3767;42.688;23.360;2022-09-21T12:31:49;0.60;;;0.60;;
7450;SDS011;3767;42.688;23.360;2022-09-21T12:34:20;1.38;;;0.80;;
7450;SDS011;3767;42.688;23.360;2022-09-21T12:36:50;0.68;;;0.57;;
7450;SDS011;3767;42.688;23.360;2022-09-21T12:39:19;1.55;;;0.50;;
7450;SDS011;3767;42.688;23.360;2022-09-21T12:41:50;0.50;;;0.50;;
7450;SDS011;3767;42.688;23.360;2022-09-21T12:44:21;1.20;;;0.50;;
7450;SDS011;3767;42.688;23.360;2022-09-21T12:46:54;1.30;;;0.60;;
7450;SDS011;3767;42.688;23.360;2022-09-21T12:49:33;0.50;;;0.50;;
7450;SDS011;3767;42.688;23.360;2022-09-21T12:52:02;0.95;;;0.50;;
7450;SDS011;3767;42.688;23.360;2022-09-21T12:54:31;0.77;;;0.57;;
7450;SDS011;3767;42.688;23.360;2022-09-21T12:57:03;0.68;;;0.68;;
7450;SDS011;3767;42.688;23.360;2022-09-21T12:59:34;1.65;;;0.50;;
7450;SDS011;3767;42.688;23.360;2022-09-21T13:02:12;0.40;;;0.40;;
7450;SDS011;3767;42.688;23.360;2022-09-21T13:04:47;0.57;;;0.57;;
7450;SDS011;3767;42.688;23.360;2022-09-21T13:07:20;1.08;;;0.40;;
7450;SDS011;3767;42.688;23.360;2022-09-21T13:09:49;0.60;;;0.57;;
7450;SDS011;3767;42.688;23.360;2022-09-21T13:12:17;0.60;;;0.60;;
7450;SDS011;3767;42.688;23.360;2022-09-21T13:14:46;0.50;;;0.50;;
7450;SDS011;3767;42.688;23.360;2022-09-21T13:17:20;0.70;;;0.70;;
7450;SDS011;3767;42.688;23.360;2022-09-21T13:19:54;0.60;;;0.60;;
7450;SDS011;3767;42.688;23.360;2022-09-21T13:22:22;0.60;;;0.60;;
7450;SDS011;3767;42.688;23.360;2022-09-21T13:24:56;0.95;;;0.63;;
7450;SDS011;3767;42.688;23.360;2022-09-21T13:30:20;0.55;;;0.55;;
7450;SDS011;3767;42.688;23.360;2022-09-21T13:32:54;0.68;;;0.68;;
7450;SDS011;3767;42.688;23.360;2022-09-21T13:38:22;0.70;;;0.70;;
7450;SDS011;3767;42.688;23.360;2022-09-21T13:40:50;1.05;;;0.50;;
7450;SDS011;3767;42.688;23.360;2022-09-21T13:43:22;2.70;;;0.57;;
7450;SDS011;3767;42.688;23.360;2022-09-21T13:45:51;0.40;;;0.40;;
7450;SDS011;3767;42.688;23.360;2022-09-21T13:48:19;1.42;;;0.45;;
7450;SDS011;3767;42.688;23.360;2022-09-21T13:50:49;0.60;;;0.60;;
7450;SDS011;3767;42.688;23.360;2022-09-21T13:53:16;1.00;;;0.85;;
7450;SDS011;3767;42.688;23.360;2022-09-21T13:55:47;1.10;;;1.02;;
7450;SDS011;3767;42.688;23.360;2022-09-21T13:58:17;3.72;;;1.23;;
7450;SDS011;3767;42.688;23.360;2022-09-21T14:00:49;1.70;;;1.60;;
7450;SDS011;3767;42.688;23.360;2022-09-21T14:03:19;1.17;;;1.05;;
7450;SDS011;3767;42.688;23.360;2022-09-21T14:05:46;1.00;;;1.00;;
7450;SDS011;3767;42.688;23.360;2022-09-21T14:08:21;1.15;;;1.08;;
7450;SDS011;3767;42.688;23.360;2022-09-21T14:10:49;1.20;;;1.20;;
7450;SDS011;3767;42.688;23.360;2022-09-21T14:16:24;1.55;;;1.45;;
7450;SDS011;3767;42.688;23.360;2022-09-21T14:18:52;1.40;;;1.40;;
7450;SDS011;3767;42.688;23.360;2022-09-21T14:21:19;1.42;;;1.42;;
7450;SDS011;3767;42.688;23.360;2022-09-21T14:26:31;3.47;;;1.42;;
7450;SDS011;3767;42.688;23.360;2022-09-21T14:29:04;1.60;;;1.48;;
7450;SDS011;3767;42.688;23.360;2022-09-21T14:31:33;1.25;;;1.25;;
7450;SDS011;3767;42.688;23.360;2022-09-21T14:34:03;1.40;;;1.30;;
7450;SDS011;3767;42.688;23.360;2022-09-21T14:36:36;1.58;;;1.48;;
7450;SDS011;3767;42.688;23.360;2022-09-21T14:39:12;1.90;;;1.80;;
7450;SDS011;3767;42.688;23.360;2022-09-21T14:41:41;1.58;;;1.40;;
7450;SDS011;3767;42.688;23.360;2022-09-21T14:44:11;1.20;;;1.20;;
7450;SDS011;3767;42.688;23.360;2022-09-21T14:46:49;2.00;;;1.30;;
7450;SDS011;3767;42.688;23.360;2022-09-21T14:49:37;2.97;;;1.40;;
7450;SDS011;3767;42.688;23.360;2022-09-21T14:52:09;1.92;;;1.20;;
7450;SDS011;3767;42.688;23.360;2022-09-21T14:54:41;1.63;;;1.25;;
7450;SDS011;3767;42.688;23.360;2022-09-21T14:57:20;1.70;;;1.38;;
7450;SDS011;3767;42.688;23.360;2022-09-21T14:59:58;1.30;;;1.30;;
7450;SDS011;3767;42.688;23.360;2022-09-21T15:02:29;1.30;;;1.30;;
7450;SDS011;3767;42.688;23.360;2022-09-21T15:04:59;1.50;;;1.40;;
7450;SDS011;3767;42.688;23.360;2022-09-21T15:07:40;2.00;;;1.90;;
7450;SDS011;3767;42.688;23.360;2022-09-21T15:10:28;2.63;;;1.50;;
7450;SDS011;3767;42.688;23.360;2022-09-21T15:13:16;1.43;;;1.33;;
7450;SDS011;3767;42.688;23.360;2022-09-21T15:15:45;1.50;;;1.40;;
7450;SDS011;3767;42.688;23.360;2022-09-21T15:18:16;1.23;;;1.23;;
7450;SDS011;3767;42.688;23.360;2022-09-21T15:20:54;1.47;;;1.37;;
7450;SDS011;3767;42.688;23.360;2022-09-21T15:23:25;1.73;;;1.63;;
7450;SDS011;3767;42.688;23.360;2022-09-21T15:25:52;2.47;;;1.60;;
7450;SDS011;3767;42.688;23.360;2022-09-21T15:28:22;1.87;;;1.77;;
7450;SDS011;3767;42.688;23.360;2022-09-21T15:30:49;4.20;;;1.83;;
7450;SDS011;3767;42.688;23.360;2022-09-21T15:33:16;1.63;;;1.53;;
7450;SDS011;3767;42.688;23.360;2022-09-21T15:35:44;1.40;;;1.30;;